This is the latest recevied weather packets stored in our database for station/object IR1CH-3. If no packets are shown the sender has not sent any weather packets the latest 10 day(s).
| Time | Temp. | Humidity | Pressure | Rain* | Wind** | Luminosity | Snow |
|---|---|---|---|---|---|---|---|
| 1777678862 | 16.11° C | 44% | 1025.3 hPa | - | - | - | - |
| 1777677061 | 16.67° C | 44% | 1025 hPa | - | - | - | - |
| 1777675261 | 16.67° C | 42% | 1024.9 hPa | - | - | - | - |
| 1777673459 | 16.67° C | 40% | 1024.7 hPa | - | - | - | - |
| 1777671659 | 17.22° C | 38% | 1024.5 hPa | - | - | - | - |
| 1777669859 | 17.78° C | 38% | 1024.4 hPa | - | - | - | - |
| 1777668058 | 17.78° C | 37% | 1024.3 hPa | - | - | - | - |
| 1777666258 | 18.33° C | 37% | 1023.9 hPa | - | - | - | - |
| 1777664458 | 18.33° C | 37% | 1023.6 hPa | - | - | - | - |
| 1777662657 | 18.89° C | 37% | 1023.2 hPa | - | - | - | - |
| 1777660857 | 19.44° C | 37% | 1023 hPa | - | - | - | - |
| 1777659057 | 21.11° C | 40% | 1022.6 hPa | - | - | - | - |
| 1777657256 | 21.11° C | 40% | 1022.5 hPa | - | - | - | - |
| 1777655456 | 21.11° C | 31% | 1022.4 hPa | - | - | - | - |
| 1777653656 | 21.67° C | 30% | 1022.3 hPa | - | - | - | - |
| 1777651855 | 22.22° C | 29% | 1022.5 hPa | - | - | - | - |
| 1777650055 | 22.22° C | 28% | 1022.6 hPa | - | - | - | - |
| 1777648255 | 22.78° C | 27% | 1022.7 hPa | - | - | - | - |
| 1777646455 | 22.78° C | 27% | 1022.8 hPa | - | - | - | - |
| 1777644654 | 22.78° C | 27% | 1023.1 hPa | - | - | - | - |
| 1777642854 | 22.78° C | 28% | 1023.2 hPa | - | - | - | - |
| 1777641053 | 22.78° C | 29% | 1023.5 hPa | - | - | - | - |
| 1777639253 | 22.22° C | 32% | 1023.9 hPa | - | - | - | - |
| 1777637453 | 22.78° C | 31% | 1024.4 hPa | - | - | - | - |
| 1777635652 | 21.67° C | 33% | 1024.9 hPa | - | - | - | - |
* Rain since midnight (hover to see other rain measurements)
** Current wind speed in m/s (hover to see current wind gust speed)